Ship Status Report: callsign WUU9657

sailwx.info

Track history (hours):
 
Tides and Currents Weather Stations Pressure Air Temp Water Temp Dewpoint Dewpoint Depression Visibility Wind Speed Wind Dir Waves Ship Positions

Callsign WUU9657 (name unknown)

Owner: INLAND MARINE SERVICE INC, HEBRON, KY. More information available from US FCC via Universal Licensing System and Coast Guard Vessel Documentation Center.

Last reported at 2018-Jul-14 09:38 UTC. Time now 2018-Jul-23 11:37 UTC.
Position N 32°50' W 091°09'.
Warning: this ship's position is 9 days out of date.

Length 39 m; draft 2.7 m.

Type: Towing. MMSI: 367060370.

Date/timePositionNaut miles runAvg speedWind from/ knotsBaromVisibWave heightAir tempDewpointWater temp
2018-Jul-14 09:38N 32°50' W 091°09'1 4.8
2018-Jul-14 09:30N 32°49' W 091°09'2 4.5
2018-Jul-14 09:00N 32°47' W 091°09'2 4.6
2018-Jul-14 08:29N 32°45' W 091°09'2 3.9
2018-Jul-14 08:00N 32°44' W 091°07'2 4.5
2018-Jul-14 07:30N 32°44' W 091°04'2 4.1
2018-Jul-14 07:00N 32°42' W 091°04'1 2.0
2018-Jul-14 06:26N 32°41' W 091°05'1 3.5
2018-Jul-14 06:00N 32°40' W 091°07'2 4.2
2018-Jul-14 05:30N 32°39' W 091°09'2 4.3
2018-Jul-14 05:00N 32°37' W 091°09'1 1.5
2018-Jul-14 04:30N 32°37' W 091°09'2 4.2
2018-Jul-14 04:00N 32°35' W 091°07'2 4.6
2018-Jul-14 03:30N 32°33' W 091°06'2 4.8
2018-Jul-14 03:00N 32°31' W 091°07'2 4.4
2018-Jul-14 02:30N 32°28' W 091°06'2 4.8
2018-Jul-14 02:00N 32°27' W 091°04'3 5.0
2018-Jul-14 01:29N 32°26' W 091°02'2 4.5
2018-Jul-14 01:00N 32°25' W 090°60'2 3.7
2018-Jul-14 00:30N 32°23' W 091°00'2 3.3
2018-Jul-14 00:00N 32°21' W 090°59'2 4.5
2018-Jul-13 23:30N 32°21' W 090°57'2 4.4
2018-Jul-13 23:00N 32°20' W 090°54'2 4.0
2018-Jul-13 22:30N 32°18' W 090°55'2 4.7
2018-Jul-13 22:00N 32°16' W 090°57'2 4.2
2018-Jul-13 21:30N 32°15' W 090°59'2 4.1
2018-Jul-13 21:00N 32°13' W 090°59'2 4.7
2018-Jul-13 20:30N 32°11' W 091°00'2 4.3
2018-Jul-13 20:00N 32°08' W 091°00'2 3.9
2018-Jul-13 19:30N 32°07' W 091°02'2 4.2
2018-Jul-13 19:00N 32°08' W 091°05'2 3.7
2018-Jul-13 18:30N 32°07' W 091°07'4 3.6
2018-Jul-13 17:20N 32°04' W 091°04'2 4.6
2018-Jul-13 16:59N 32°02' W 091°04'3 5.0
2018-Jul-13 16:28N 31°60' W 091°06'3 4.5
2018-Jul-13 15:52N 31°59' W 091°09'2 4.6
2018-Jul-13 15:28N 31°58' W 091°11'7 4.5
2018-Jul-13 14:00N 31°53' W 091°14'3 4.3
2018-Jul-13 13:25N 31°51' W 091°17'2 4.7
2018-Jul-13 13:00N 31°51' W 091°19'2 4.1
2018-Jul-13 12:30N 31°50' W 091°21'4 4.5
2018-Jul-13 11:34N 31°46' W 091°22'1 4.5
2018-Jul-13 11:26N 31°46' W 091°22'3 5.0
2018-Jul-13 10:48N 31°43' W 091°24'  
2018-Jul-09 22:50N 31°58' W 091°11'5 8.7
2018-Jul-09 22:13N 31°60' W 091°05'3 9.7
2018-Jul-09 21:55N 32°02' W 091°04'3 8.4
2018-Jul-09 21:30N 32°05' W 091°05'3 4.9
2018-Jul-09 21:00N 32°08' W 091°04'4 7.5
2018-Jul-09 20:30N 32°09' W 091°00'5 9.6
2018-Jul-09 20:00N 32°14' W 090°59'5 9.0
2018-Jul-09 19:30N 32°17' W 090°56'1 2.2
2018-Jul-09 19:00N 32°18' W 090°55'0 0.0
2018-Jul-09 18:30N 32°18' W 090°55'0 0.0
2018-Jul-09 18:00N 32°18' W 090°55'0 0.0
2018-Jul-09 17:30N 32°18' W 090°55'0 0.0
2018-Jul-09 17:00N 32°18' W 090°55'2 4.0
2018-Jul-09 16:30N 32°20' W 090°54'5 9.0
2018-Jul-09 16:00N 32°21' W 090°59'4 8.2
2018-Jul-09 15:30N 32°25' W 091°00'5 9.3
2018-Jul-09 15:00N 32°27' W 091°05'4 8.4
2018-Jul-09 14:30N 32°31' W 091°06'4 8.5
2018-Jul-09 14:00N 32°35' W 091°08'4 8.6
2018-Jul-09 13:30N 32°39' W 091°09'  
Track history (hours):
 
Tides and Currents Weather Stations Pressure Air Temp Water Temp Dewpoint Dewpoint Depression Visibility Wind Speed Wind Dir Waves Ship Positions

Callsign WUU9657 (name unknown)

Owner: INLAND MARINE SERVICE INC, HEBRON, KY. More information available from US FCC via Universal Licensing System and Coast Guard Vessel Documentation Center.

Last reported at 2018-Jul-14 09:38 UTC. Time now 2018-Jul-23 11:37 UTC.
Position N 32°50' W 091°09'.
Warning: this ship's position is 9 days out of date.

Length 39 m; draft 2.7 m.

Type: Towing. MMSI: 367060370.

Date/timePositionNaut miles runAvg speedWind from/ knotsBaromVisibWave heightAir tempDewpointWater temp
2018-Jul-14 09:38N 32°50' W 091°09'1 4.8
2018-Jul-14 09:30N 32°49' W 091°09'2 4.5
2018-Jul-14 09:00N 32°47' W 091°09'2 4.6
2018-Jul-14 08:29N 32°45' W 091°09'2 3.9
2018-Jul-14 08:00N 32°44' W 091°07'2 4.5
2018-Jul-14 07:30N 32°44' W 091°04'2 4.1
2018-Jul-14 07:00N 32°42' W 091°04'1 2.0
2018-Jul-14 06:26N 32°41' W 091°05'1 3.5
2018-Jul-14 06:00N 32°40' W 091°07'2 4.2
2018-Jul-14 05:30N 32°39' W 091°09'2 4.3
2018-Jul-14 05:00N 32°37' W 091°09'1 1.5
2018-Jul-14 04:30N 32°37' W 091°09'2 4.2
2018-Jul-14 04:00N 32°35' W 091°07'2 4.6
2018-Jul-14 03:30N 32°33' W 091°06'2 4.8
2018-Jul-14 03:00N 32°31' W 091°07'2 4.4
2018-Jul-14 02:30N 32°28' W 091°06'2 4.8
2018-Jul-14 02:00N 32°27' W 091°04'3 5.0
2018-Jul-14 01:29N 32°26' W 091°02'2 4.5
2018-Jul-14 01:00N 32°25' W 090°60'2 3.7
2018-Jul-14 00:30N 32°23' W 091°00'2 3.3
2018-Jul-14 00:00N 32°21' W 090°59'2 4.5
2018-Jul-13 23:30N 32°21' W 090°57'2 4.4
2018-Jul-13 23:00N 32°20' W 090°54'2 4.0
2018-Jul-13 22:30N 32°18' W 090°55'2 4.7
2018-Jul-13 22:00N 32°16' W 090°57'2 4.2
2018-Jul-13 21:30N 32°15' W 090°59'2 4.1
2018-Jul-13 21:00N 32°13' W 090°59'2 4.7
2018-Jul-13 20:30N 32°11' W 091°00'2 4.3
2018-Jul-13 20:00N 32°08' W 091°00'2 3.9
2018-Jul-13 19:30N 32°07' W 091°02'2 4.2
2018-Jul-13 19:00N 32°08' W 091°05'2 3.7
2018-Jul-13 18:30N 32°07' W 091°07'4 3.6
2018-Jul-13 17:20N 32°04' W 091°04'2 4.6
2018-Jul-13 16:59N 32°02' W 091°04'3 5.0
2018-Jul-13 16:28N 31°60' W 091°06'3 4.5
2018-Jul-13 15:52N 31°59' W 091°09'2 4.6
2018-Jul-13 15:28N 31°58' W 091°11'7 4.5
2018-Jul-13 14:00N 31°53' W 091°14'3 4.3
2018-Jul-13 13:25N 31°51' W 091°17'2 4.7
2018-Jul-13 13:00N 31°51' W 091°19'2 4.1
2018-Jul-13 12:30N 31°50' W 091°21'4 4.5
2018-Jul-13 11:34N 31°46' W 091°22'1 4.5
2018-Jul-13 11:26N 31°46' W 091°22'3 5.0
2018-Jul-13 10:48N 31°43' W 091°24'  
2018-Jul-09 22:50N 31°58' W 091°11'5 8.7
2018-Jul-09 22:13N 31°60' W 091°05'3 9.7
2018-Jul-09 21:55N 32°02' W 091°04'3 8.4
2018-Jul-09 21:30N 32°05' W 091°05'3 4.9
2018-Jul-09 21:00N 32°08' W 091°04'4 7.5
2018-Jul-09 20:30N 32°09' W 091°00'5 9.6
2018-Jul-09 20:00N 32°14' W 090°59'5 9.0
2018-Jul-09 19:30N 32°17' W 090°56'1 2.2
2018-Jul-09 19:00N 32°18' W 090°55'0 0.0
2018-Jul-09 18:30N 32°18' W 090°55'0 0.0
2018-Jul-09 18:00N 32°18' W 090°55'0 0.0
2018-Jul-09 17:30N 32°18' W 090°55'0 0.0
2018-Jul-09 17:00N 32°18' W 090°55'2 4.0
2018-Jul-09 16:30N 32°20' W 090°54'5 9.0
2018-Jul-09 16:00N 32°21' W 090°59'4 8.2
2018-Jul-09 15:30N 32°25' W 091°00'5 9.3
2018-Jul-09 15:00N 32°27' W 091°05'4 8.4
2018-Jul-09 14:30N 32°31' W 091°06'4 8.5
2018-Jul-09 14:00N 32°35' W 091°08'4 8.6
2018-Jul-09 13:30N 32°39' W 091°09'  

Dump ship's entire track history